Airfield :
LOGIN :

Register | Disclaimer

   EN    FR    IT 

 










Legend :    VFR   Marginal VFR   IFR   Intensive IFR   Very Intensive IFR
Visi :
Ceiling :
>= 8 km
>= 3000ft
5 to 8 km
1000 to 3000 ft
1500m to 5 km
500 to 1000 ft
800 to 1500m
200 to 500 ft
< 800m
< 200 ft
Symbols :   Thunderstorms  Fog  Heavy snow  Heavy precipitations  Wind > 20 kt
SIGMETs :     Misc.  Thunderstorms  Icing  Turbulence  Mountain Waves  Volcanic Ashes







- Airport Elevation : 526 ft
- IATA code : LTN
- Download approach charts


EGGW - London Luton

CURRENT METAR :
  • 221150Z AUTO 24013KT 9999 BKN030 26/17 Q1022

EXPIRED METARs :
  • 221120Z AUTO 24013KT 200V280 9999 BKN028 26/17 Q1022
  • 221050Z AUTO 23013KT 9999 BKN026 25/17 Q1022
  • 221020Z AUTO 25014KT 9999 BKN025 24/17 Q1022
  • 220950Z AUTO 25013KT 9999 BKN022 23/16 Q1022
  • 220920Z 22011KT 190V250 9999 BKN022 23/17 Q1022

TAF TAF EGGW
Valid from the 22 at 12:00 until the 23 at 12:00 UTC


221056Z 2212/2312 23013KT 9999 FEW030
BECMG 2300/2303 VRB04KT 6000
PROB40 2303/2306 2000 BR BKN001
BECMG 2306/2309 9999
ATIS : +44 1582 395 204
No reported NOTAMs for that airfield.
1 SIGMET reported for the London FIR (EGTT) :
 
Severe mountain waves
EGTT SIGMET 03 VALID 221000/221400 EGRR
EGTT LONDON FIR SEV MTW FCST WI N5500 W00530 - N5500 E00125 - N5250 W00121 - N5250 W00530 - N5500 W00530 FL040/240 MOV N 05KT WKN=



MET'MAP, your aeronautical weather chart ! - Copyright ORBIFLY December 2007 - Disclaimer

ORBIFLY MET'MAP TEAM :

Programming & Development : Alexandra Zaïnal
Concept & Development : Baudouin d'Aumeries
Co-Development & Prog : Marc-Olivier Méhu
Technical & hardware support : Manuel Goepfert

Contact : metmap@orbifly.com




SOURCES & CREDITS :

   NOAA